Time;durP1;ratioP1;P1;durP2;ratioP2;P2;SDS_P1;SDS_P2;PMS_P1;PMS_P2;Temp;Humidity;BMP_temperature;BMP_pressure;BME280_temperature;BME280_humidity;BME280_pressure;Samples;Min_cycle;Max_cycle;Signal;HPM_P1;HPM_P2
2021/12/01 00:00:21;;;;;;;0.50;0.50;;;;;;;;;;5055442;28;20621;-65
2021/12/01 00:02:53;;;;;;;0.50;0.50;;;;;;;;;;5073459;28;20534;-64
2021/12/01 00:05:20;;;;;;;0.50;0.50;;;;;;;;;;5073477;28;20181;-64
2021/12/01 00:07:46;;;;;;;0.50;0.50;;;;;;;;;;5073460;28;20614;-65
2021/12/01 00:10:12;;;;;;;0.50;0.50;;;;;;;;;;5073199;28;20259;-64
2021/12/01 00:12:38;;;;;;;0.50;0.50;;;;;;;;;;5073278;28;20200;-64
2021/12/01 00:15:05;;;;;;;0.50;0.50;;;;;;;;;;5055356;28;20185;-65
2021/12/01 00:17:31;;;;;;;0.50;0.50;;;;;;;;;;5073255;28;20414;-65
2021/12/01 00:19:59;;;;;;;0.50;0.50;;;;;;;;;;5073202;28;20167;-65
2021/12/01 00:22:25;;;;;;;0.50;0.50;;;;;;;;;;5072821;28;20815;-65
2021/12/01 00:24:51;;;;;;;0.45;0.45;;;;;;;;;;5073113;28;20169;-65
2021/12/01 00:27:17;;;;;;;0.50;0.50;;;;;;;;;;5073073;28;20647;-65
2021/12/01 00:29:43;;;;;;;0.50;0.50;;;;;;;;;;5073001;28;20758;-65
2021/12/01 00:32:09;;;;;;;0.50;0.50;;;;;;;;;;5072627;28;20441;-65
2021/12/01 00:34:35;;;;;;;0.50;0.50;;;;;;;;;;5072886;28;20423;-65
2021/12/01 00:37:01;;;;;;;0.40;0.40;;;;;;;;;;5072705;28;20177;-65
2021/12/01 00:39:27;;;;;;;0.50;0.50;;;;;;;;;;5072819;28;20170;-65
2021/12/01 00:41:55;;;;;;;0.50;0.50;;;;;;;;;;5072551;28;20411;-65
2021/12/01 00:44:21;;;;;;;0.50;0.50;;;;;;;;;;5072554;28;20467;-65
2021/12/01 00:49:29;;;;;;;0.50;0.50;;;;;;;;;;5072890;28;20386;-65
2021/12/01 00:51:55;;;;;;;0.50;0.50;;;;;;;;;;5054301;28;20204;-65
2021/12/01 00:54:21;;;;;;;0.50;0.50;;;;;;;;;;5072431;28;20191;-65
2021/12/01 00:56:49;;;;;;;0.50;0.50;;;;;;;;;;5072483;28;20397;-65
2021/12/01 00:59:15;;;;;;;0.50;0.50;;;;;;;;;;5054475;28;20186;-65
2021/12/01 01:01:41;;;;;;;0.40;0.40;;;;;;;;;;5071197;28;20247;-65
2021/12/01 01:04:07;;;;;;;0.50;0.50;;;;;;;;;;5072155;28;20479;-65
2021/12/01 01:06:33;;;;;;;0.50;0.50;;;;;;;;;;5072297;28;20176;-66
2021/12/01 01:09:00;;;;;;;0.50;0.50;;;;;;;;;;5072241;28;20167;-66
2021/12/01 01:16:58;;;;;;;0.50;0.50;;;;;;;;;;5072162;28;20198;-66
2021/12/01 01:19:25;;;;;;;0.50;0.50;;;;;;;;;;5054665;28;20159;-66
2021/12/01 01:21:52;;;;;;;0.60;0.60;;;;;;;;;;5071877;28;20165;-66
2021/12/01 01:24:18;;;;;;;0.50;0.50;;;;;;;;;;5071961;28;20193;-66
2021/12/01 01:26:45;;;;;;;0.50;0.50;;;;;;;;;;5071925;28;20213;-66
2021/12/01 01:29:11;;;;;;;0.50;0.50;;;;;;;;;;5071963;28;20257;-65
2021/12/01 01:31:37;;;;;;;0.50;0.50;;;;;;;;;;5071854;28;20192;-66
2021/12/01 01:34:04;;;;;;;0.50;0.50;;;;;;;;;;5071741;28;20572;-65
2021/12/01 01:36:30;;;;;;;0.50;0.50;;;;;;;;;;5072051;28;20170;-66
2021/12/01 01:38:58;;;;;;;0.45;0.45;;;;;;;;;;5071840;28;20169;-66
2021/12/01 01:41:24;;;;;;;0.50;0.50;;;;;;;;;;5071572;28;20268;-66
2021/12/01 01:43:51;;;;;;;0.50;0.50;;;;;;;;;;5071903;28;20187;-66
2021/12/01 01:46:18;;;;;;;0.50;0.50;;;;;;;;;;5053790;28;20536;-66
2021/12/01 01:48:53;;;;;;;0.50;0.50;;;;;;;;;;5071749;28;20180;-66
2021/12/01 01:51:21;;;;;;;0.50;0.50;;;;;;;;;;5071484;28;20188;-66
2021/12/01 01:53:48;;;;;;;0.50;0.50;;;;;;;;;;5071555;28;20186;-66
2021/12/01 01:56:14;;;;;;;0.50;0.50;;;;;;;;;;5071661;28;20216;-66
2021/12/01 01:58:40;;;;;;;0.50;0.50;;;;;;;;;;5071701;28;20170;-66
2021/12/01 02:01:08;;;;;;;0.50;0.50;;;;;;;;;;5070305;28;20444;-65
2021/12/01 02:03:38;;;;;;;0.50;0.50;;;;;;;;;;5071304;28;20303;-66
2021/12/01 02:06:05;;;;;;;0.45;0.45;;;;;;;;;;5070008;28;20702;-66
2021/12/01 02:08:33;;;;;;;0.50;0.50;;;;;;;;;;5052832;28;20235;-65
2021/12/01 02:11:00;;;;;;;0.50;0.50;;;;;;;;;;5071241;28;20242;-66
2021/12/01 02:13:26;;;;;;;0.50;0.50;;;;;;;;;;5075334;28;20196;-66
2021/12/01 02:15:53;;;;;;;0.50;0.50;;;;;;;;;;5075220;28;20636;-66
2021/12/01 02:18:19;;;;;;;0.50;0.50;;;;;;;;;;5075433;28;20617;-66
2021/12/01 02:21:04;;;;;;;0.50;0.50;;;;;;;;;;5075302;28;20189;-65
2021/12/01 02:23:30;;;;;;;0.50;0.50;;;;;;;;;;5075351;28;20237;-66
2021/12/01 02:25:56;;;;;;;0.60;0.60;;;;;;;;;;5075457;28;20172;-66
2021/12/01 02:28:23;;;;;;;0.50;0.50;;;;;;;;;;5075398;28;20243;-66
2021/12/01 02:30:49;;;;;;;0.50;0.50;;;;;;;;;;5075040;28;20654;-66
2021/12/01 02:33:15;;;;;;;0.50;0.50;;;;;;;;;;5075043;28;20194;-66
2021/12/01 02:35:41;;;;;;;0.50;0.50;;;;;;;;;;5075102;28;20179;-65
2021/12/01 02:38:07;;;;;;;0.50;0.50;;;;;;;;;;5075237;28;20497;-66
2021/12/01 02:40:34;;;;;;;0.50;0.50;;;;;;;;;;5056939;28;20963;-65
2021/12/01 02:43:00;;;;;;;0.50;0.50;;;;;;;;;;5074989;28;20270;-66
2021/12/01 02:45:26;;;;;;;0.50;0.50;;;;;;;;;;5074987;28;20252;-66
2021/12/01 02:47:52;;;;;;;0.50;0.50;;;;;;;;;;5074937;28;20582;-66
2021/12/01 02:50:18;;;;;;;0.50;0.50;;;;;;;;;;5074610;28;20166;-66
2021/12/01 02:52:46;;;;;;;0.52;0.52;;;;;;;;;;5074702;28;20451;-65
2021/12/01 02:55:15;;;;;;;0.50;0.50;;;;;;;;;;5074745;28;20241;-65
2021/12/01 02:57:45;;;;;;;0.50;0.50;;;;;;;;;;5074846;28;20219;-65
2021/12/01 03:00:12;;;;;;;0.60;0.60;;;;;;;;;;5074551;28;20170;-65
2021/12/01 03:02:39;;;;;;;0.60;0.60;;;;;;;;;;5074800;28;20229;-65
2021/12/01 03:05:06;;;;;;;0.50;0.50;;;;;;;;;;5104973;22;20225;-66
2021/12/01 03:07:32;;;;;;;0.50;0.50;;;;;;;;;;5094920;28;20619;-67
2021/12/01 03:09:58;;;;;;;0.50;0.50;;;;;;;;;;5094743;28;20175;-66
2021/12/01 03:12:28;;;;;;;0.60;0.60;;;;;;;;;;5094682;28;20205;-67
2021/12/01 03:14:54;;;;;;;0.50;0.50;;;;;;;;;;5094720;28;20506;-65
2021/12/01 03:17:19;;;;;;;0.50;0.50;;;;;;;;;;5076582;28;20367;-66
2021/12/01 03:19:45;;;;;;;0.43;0.43;;;;;;;;;;5094773;28;20909;-66
2021/12/01 03:22:13;;;;;;;0.50;0.50;;;;;;;;;;5094372;28;20762;-66
2021/12/01 03:24:39;;;;;;;0.50;0.50;;;;;;;;;;5075227;28;20193;-66
2021/12/01 03:27:05;;;;;;;0.50;0.50;;;;;;;;;;5094492;28;20259;-65
2021/12/01 03:29:31;;;;;;;0.50;0.50;;;;;;;;;;5094537;28;20185;-66
2021/12/01 03:31:57;;;;;;;0.50;0.50;;;;;;;;;;5094230;28;20195;-66
2021/12/01 03:34:23;;;;;;;0.50;0.50;;;;;;;;;;5094216;28;20217;-66
2021/12/01 03:36:50;;;;;;;0.50;0.50;;;;;;;;;;5094373;28;20196;-66
2021/12/01 03:39:16;;;;;;;0.50;0.50;;;;;;;;;;5094291;28;20165;-66
2021/12/01 03:41:42;;;;;;;0.50;0.50;;;;;;;;;;5094008;28;20260;-65
2021/12/01 03:44:08;;;;;;;0.60;0.60;;;;;;;;;;5094071;28;20427;-66
2021/12/01 03:46:34;;;;;;;0.50;0.50;;;;;;;;;;5094143;28;20549;-66
2021/12/01 03:49:00;;;;;;;0.50;0.50;;;;;;;;;;5093998;28;20648;-66
2021/12/01 03:51:26;;;;;;;0.50;0.50;;;;;;;;;;5093744;28;20247;-66
2021/12/01 03:53:52;;;;;;;0.50;0.50;;;;;;;;;;5093911;28;20423;-65
2021/12/01 03:56:21;;;;;;;0.50;0.50;;;;;;;;;;5093967;28;20398;-64
2021/12/01 03:58:47;;;;;;;0.50;0.50;;;;;;;;;;5093704;28;20173;-66
2021/12/01 04:01:13;;;;;;;0.50;0.50;;;;;;;;;;5093573;28;20209;-65
2021/12/01 04:03:40;;;;;;;0.50;0.50;;;;;;;;;;5093879;28;20674;-65
2021/12/01 04:06:06;;;;;;;0.50;0.50;;;;;;;;;;5093820;28;20168;-66
2021/12/01 04:08:32;;;;;;;0.50;0.50;;;;;;;;;;5093781;28;20223;-65
2021/12/01 04:10:58;;;;;;;0.50;0.50;;;;;;;;;;5093417;28;20235;-65
2021/12/01 04:13:24;;;;;;;0.50;0.50;;;;;;;;;;5093613;28;20181;-65
2021/12/01 04:15:50;;;;;;;0.50;0.50;;;;;;;;;;5093608;28;20394;-65
2021/12/01 04:18:16;;;;;;;0.50;0.50;;;;;;;;;;5093566;28;20466;-66
2021/12/01 04:20:42;;;;;;;0.50;0.50;;;;;;;;;;5093343;28;20757;-66
2021/12/01 04:23:08;;;;;;;0.50;0.50;;;;;;;;;;5093452;28;20161;-66
2021/12/01 04:25:34;;;;;;;0.50;0.50;;;;;;;;;;5093334;28;20405;-66
2021/12/01 04:28:00;;;;;;;0.40;0.40;;;;;;;;;;5093432;28;20174;-66
2021/12/01 04:30:27;;;;;;;0.40;0.40;;;;;;;;;;5093331;28;20195;-65
2021/12/01 04:32:53;;;;;;;0.50;0.50;;;;;;;;;;5093311;28;20196;-65
2021/12/01 04:35:21;;;;;;;0.50;0.50;;;;;;;;;;5092865;28;20199;-66
2021/12/01 04:37:48;;;;;;;0.60;0.60;;;;;;;;;;5093220;28;20674;-66
2021/12/01 04:40:14;;;;;;;0.50;0.50;;;;;;;;;;5092903;28;20613;-65
2021/12/01 04:42:40;;;;;;;0.50;0.50;;;;;;;;;;5093083;28;20588;-66
2021/12/01 04:45:13;;;;;;;0.50;0.50;;;;;;;;;;5074669;28;20184;-66
2021/12/01 04:47:41;;;;;;;0.50;0.50;;;;;;;;;;5092804;28;20184;-65
2021/12/01 04:50:07;;;;;;;0.47;0.47;;;;;;;;;;5092775;28;20175;-66
2021/12/01 04:52:33;;;;;;;0.50;0.50;;;;;;;;;;5092936;28;20290;-66
2021/12/01 04:54:59;;;;;;;0.60;0.60;;;;;;;;;;5074589;28;20193;-65
2021/12/01 04:57:25;;;;;;;0.50;0.50;;;;;;;;;;5092831;28;20172;-66
2021/12/01 04:59:51;;;;;;;0.60;0.60;;;;;;;;;;5092663;28;20395;-65
2021/12/01 05:02:17;;;;;;;0.50;0.50;;;;;;;;;;5092548;28;20470;-63
2021/12/01 05:04:43;;;;;;;0.50;0.50;;;;;;;;;;5092415;28;20788;-65
2021/12/01 05:07:10;;;;;;;0.50;0.50;;;;;;;;;;5092625;28;20219;-65
2021/12/01 05:09:36;;;;;;;0.50;0.50;;;;;;;;;;5092702;28;20403;-66
2021/12/01 05:12:03;;;;;;;0.50;0.50;;;;;;;;;;5092297;28;20255;-65
2021/12/01 05:14:29;;;;;;;0.50;0.50;;;;;;;;;;5092469;28;20190;-65
2021/12/01 05:16:55;;;;;;;0.50;0.50;;;;;;;;;;5092557;28;20169;-65
2021/12/01 05:19:21;;;;;;;0.50;0.50;;;;;;;;;;5092463;28;20494;-65
2021/12/01 05:21:47;;;;;;;0.50;0.50;;;;;;;;;;5092159;28;20407;-66
2021/12/01 05:24:13;;;;;;;0.50;0.50;;;;;;;;;;5092242;28;20194;-65
2021/12/01 05:26:39;;;;;;;0.50;0.50;;;;;;;;;;5074099;28;20182;-65
2021/12/01 05:29:05;;;;;;;0.50;0.50;;;;;;;;;;5092175;28;20506;-66
2021/12/01 05:31:31;;;;;;;0.50;0.50;;;;;;;;;;5091768;28;20200;-65
2021/12/01 05:33:57;;;;;;;0.50;0.50;;;;;;;;;;5092069;28;20648;-66
2021/12/01 05:36:23;;;;;;;0.50;0.50;;;;;;;;;;5092203;28;20304;-65
2021/12/01 05:38:49;;;;;;;0.50;0.50;;;;;;;;;;5092338;28;20411;-64
2021/12/01 05:41:15;;;;;;;0.50;0.50;;;;;;;;;;5091929;28;20188;-65
2021/12/01 05:43:42;;;;;;;0.40;0.40;;;;;;;;;;5074035;28;20280;-65
2021/12/01 05:46:08;;;;;;;0.50;0.50;;;;;;;;;;5091357;28;20407;-64
2021/12/01 05:48:34;;;;;;;0.50;0.50;;;;;;;;;;5091959;28;20166;-66
2021/12/01 05:51:00;;;;;;;0.40;0.40;;;;;;;;;;5091716;28;20170;-66
2021/12/01 05:53:26;;;;;;;0.50;0.50;;;;;;;;;;5092129;28;20581;-66
2021/12/01 05:55:52;;;;;;;0.50;0.50;;;;;;;;;;5081474;28;20408;-65
2021/12/01 05:58:18;;;;;;;0.50;0.50;;;;;;;;;;5071588;28;20406;-65
2021/12/01 06:00:44;;;;;;;0.50;0.50;;;;;;;;;;5079513;28;20173;-63
2021/12/01 06:03:10;;;;;;;0.50;0.50;;;;;;;;;;5091731;28;20218;-64
2021/12/01 06:05:36;;;;;;;0.50;0.50;;;;;;;;;;5091723;28;20411;-65
2021/12/01 06:08:03;;;;;;;0.40;0.40;;;;;;;;;;5090363;28;20763;-64
2021/12/01 06:10:29;;;;;;;0.50;0.50;;;;;;;;;;5081673;28;20549;-66
2021/12/01 06:12:55;;;;;;;0.50;0.50;;;;;;;;;;5076051;28;20238;-65
2021/12/01 06:15:21;;;;;;;0.50;0.50;;;;;;;;;;5089344;28;20469;-64
2021/12/01 06:17:47;;;;;;;0.50;0.50;;;;;;;;;;5083416;28;20416;-65
2021/12/01 06:20:13;;;;;;;0.50;0.50;;;;;;;;;;5072433;28;20407;-64
2021/12/01 06:22:43;;;;;;;0.50;0.50;;;;;;;;;;5072102;28;20185;-65
2021/12/01 06:25:09;;;;;;;0.60;0.60;;;;;;;;;;5074872;28;20377;-65
2021/12/01 06:27:36;;;;;;;0.50;0.50;;;;;;;;;;5071730;28;20175;-65
2021/12/01 06:30:02;;;;;;;0.47;0.47;;;;;;;;;;5071607;28;20265;-66
2021/12/01 06:32:28;;;;;;;0.50;0.50;;;;;;;;;;5071160;28;20210;-65
2021/12/01 06:34:54;;;;;;;0.50;0.50;;;;;;;;;;5071405;28;20194;-66
2021/12/01 06:37:20;;;;;;;0.50;0.50;;;;;;;;;;5071469;28;20415;-66
2021/12/01 06:39:46;;;;;;;0.60;0.60;;;;;;;;;;5071337;28;20167;-65
2021/12/01 06:42:12;;;;;;;0.50;0.50;;;;;;;;;;5070949;28;20440;-67
2021/12/01 06:44:38;;;;;;;0.50;0.50;;;;;;;;;;5053117;28;20248;-65
2021/12/01 06:47:04;;;;;;;0.50;0.50;;;;;;;;;;5071138;28;20257;-67
2021/12/01 06:49:30;;;;;;;0.50;0.50;;;;;;;;;;5071344;28;20257;-67
2021/12/01 06:51:56;;;;;;;0.50;0.50;;;;;;;;;;5070975;28;20497;-65
2021/12/01 06:54:22;;;;;;;0.50;0.50;;;;;;;;;;5069701;28;20207;-66
2021/12/01 06:56:48;;;;;;;0.40;0.40;;;;;;;;;;5053247;28;20265;-67
2021/12/01 06:59:14;;;;;;;0.47;0.47;;;;;;;;;;5074560;28;20258;-65
2021/12/01 07:01:40;;;;;;;0.50;0.50;;;;;;;;;;5074665;28;20408;-65
2021/12/01 07:04:06;;;;;;;0.50;0.50;;;;;;;;;;5074755;28;20776;-66
2021/12/01 07:06:32;;;;;;;0.40;0.40;;;;;;;;;;5074800;28;20948;-66
2021/12/01 07:09:01;;;;;;;0.50;0.50;;;;;;;;;;5074721;28;20457;-65
2021/12/01 07:11:30;;;;;;;0.43;0.43;;;;;;;;;;5074241;28;20570;-67
2021/12/01 07:13:56;;;;;;;0.50;0.50;;;;;;;;;;5057166;28;20182;-66
2021/12/01 07:16:23;;;;;;;0.43;0.43;;;;;;;;;;5082938;28;20207;-66
2021/12/01 07:18:49;;;;;;;0.50;0.50;;;;;;;;;;5094772;28;20169;-65
2021/12/01 07:21:15;;;;;;;0.40;0.40;;;;;;;;;;5094532;28;20252;-66
2021/12/01 07:23:41;;;;;;;0.50;0.50;;;;;;;;;;5094304;28;20185;-67
2021/12/01 07:26:07;;;;;;;0.40;0.40;;;;;;;;;;5093873;28;20248;-66
2021/12/01 07:28:34;;;;;;;0.40;0.40;;;;;;;;;;5094596;28;20182;-65
2021/12/01 07:31:00;;;;;;;0.40;0.40;;;;;;;;;;5094184;28;20470;-65
2021/12/01 07:33:26;;;;;;;0.50;0.50;;;;;;;;;;5094310;28;20280;-66
2021/12/01 07:35:52;;;;;;;0.40;0.40;;;;;;;;;;5094435;28;20189;-65
2021/12/01 07:38:18;;;;;;;0.40;0.40;;;;;;;;;;5093693;28;20240;-66
2021/12/01 07:40:44;;;;;;;0.50;0.50;;;;;;;;;;5093946;28;20598;-64
2021/12/01 07:43:10;;;;;;;0.50;0.50;;;;;;;;;;5094095;28;20195;-64
2021/12/01 07:45:36;;;;;;;0.50;0.50;;;;;;;;;;5094114;28;20425;-64
2021/12/01 07:48:03;;;;;;;0.50;0.50;;;;;;;;;;5093647;28;20495;-66
2021/12/01 07:50:29;;;;;;;0.50;0.50;;;;;;;;;;5093832;28;20314;-64
2021/12/01 07:52:55;;;;;;;0.50;0.50;;;;;;;;;;5093925;28;20273;-65
2021/12/01 07:55:21;;;;;;;0.50;0.50;;;;;;;;;;5093934;28;20793;-66
2021/12/01 07:57:47;;;;;;;0.50;0.50;;;;;;;;;;5093894;28;20170;-64
2021/12/01 08:00:13;;;;;;;0.40;0.40;;;;;;;;;;5093662;28;20218;-63
2021/12/01 08:02:39;;;;;;;0.50;0.50;;;;;;;;;;5075604;28;20644;-65
2021/12/01 08:05:06;;;;;;;0.40;0.40;;;;;;;;;;5093565;28;20206;-65
2021/12/01 08:07:35;;;;;;;0.40;0.40;;;;;;;;;;5093679;28;20766;-64
2021/12/01 08:10:01;;;;;;;0.50;0.50;;;;;;;;;;5093034;28;20226;-64
2021/12/01 08:12:27;;;;;;;0.50;0.50;;;;;;;;;;5093554;28;20761;-64
2021/12/01 08:14:53;;;;;;;0.50;0.50;;;;;;;;;;5093706;28;20235;-64
2021/12/01 08:17:19;;;;;;;0.50;0.50;;;;;;;;;;5075487;28;20409;-65
2021/12/01 08:19:45;;;;;;;0.50;0.50;;;;;;;;;;5093541;28;20891;-64
2021/12/01 08:22:11;;;;;;;0.50;0.50;;;;;;;;;;5093278;28;20797;-65
2021/12/01 08:24:37;;;;;;;0.50;0.50;;;;;;;;;;5093403;28;20824;-64
2021/12/01 08:27:03;;;;;;;0.50;0.50;;;;;;;;;;5093740;28;20196;-64
2021/12/01 08:29:29;;;;;;;0.50;0.50;;;;;;;;;;5093795;28;20265;-65
2021/12/01 08:31:55;;;;;;;0.50;0.50;;;;;;;;;;5093100;28;20658;-66
2021/12/01 08:34:21;;;;;;;0.50;0.50;;;;;;;;;;5074260;28;20954;-66
2021/12/01 08:36:47;;;;;;;0.50;0.50;;;;;;;;;;5093212;28;20801;-66
2021/12/01 08:39:13;;;;;;;0.40;0.40;;;;;;;;;;5093505;28;20401;-64
2021/12/01 08:41:39;;;;;;;0.50;0.50;;;;;;;;;;5093073;28;20173;-65
2021/12/01 08:44:05;;;;;;;0.40;0.40;;;;;;;;;;5093083;28;20330;-65
2021/12/01 08:46:31;;;;;;;0.50;0.50;;;;;;;;;;5093158;28;20166;-64
2021/12/01 08:48:58;;;;;;;0.50;0.50;;;;;;;;;;5093013;28;20185;-65
2021/12/01 08:51:25;;;;;;;0.50;0.50;;;;;;;;;;5092700;28;20198;-64
2021/12/01 08:53:51;;;;;;;0.47;0.47;;;;;;;;;;5092727;28;20186;-65
2021/12/01 08:56:17;;;;;;;0.45;0.45;;;;;;;;;;5092972;28;20166;-65
2021/12/01 08:58:43;;;;;;;0.40;0.40;;;;;;;;;;5092773;28;20194;-65
2021/12/01 09:01:09;;;;;;;0.40;0.40;;;;;;;;;;5092613;28;20704;-65
2021/12/01 09:06:11;;;;;;;0.50;0.50;;;;;;;;;;5050135;28;20852;-63
2021/12/01 09:08:39;;;;;;;0.43;0.43;;;;;;;;;;5052260;28;20171;-63
2021/12/01 09:11:06;;;;;;;0.50;0.50;;;;;;;;;;5052024;28;20818;-63
2021/12/01 09:13:32;;;;;;;0.40;0.40;;;;;;;;;;5052348;28;20164;-64
2021/12/01 09:15:59;;;;;;;0.50;0.50;;;;;;;;;;5052106;28;20187;-63
2021/12/01 09:18:27;;;;;;;0.50;0.50;;;;;;;;;;5052265;28;20179;-63
2021/12/01 09:20:53;;;;;;;0.40;0.40;;;;;;;;;;5051476;28;20192;-63
2021/12/01 09:23:19;;;;;;;0.60;0.60;;;;;;;;;;5051786;28;20184;-63
2021/12/01 09:25:45;;;;;;;0.50;0.50;;;;;;;;;;5051585;28;20184;-63
2021/12/01 09:28:15;;;;;;;0.50;0.50;;;;;;;;;;5051831;28;20172;-63
2021/12/01 09:30:41;;;;;;;0.40;0.40;;;;;;;;;;5051637;28;20171;-63
2021/12/01 09:33:07;;;;;;;0.50;0.50;;;;;;;;;;5051907;28;20200;-63
2021/12/01 09:35:33;;;;;;;0.50;0.50;;;;;;;;;;5052003;28;20275;-63
2021/12/01 09:37:59;;;;;;;0.50;0.50;;;;;;;;;;5052543;28;20749;-63
2021/12/01 09:40:25;;;;;;;0.50;0.50;;;;;;;;;;5052606;28;20243;-63
2021/12/01 09:42:52;;;;;;;0.50;0.50;;;;;;;;;;5052115;28;20398;-63
2021/12/01 09:45:20;;;;;;;0.40;0.40;;;;;;;;;;5051911;28;20476;-63
2021/12/01 09:47:46;;;;;;;0.43;0.43;;;;;;;;;;5050627;28;20542;-63
2021/12/01 09:50:13;;;;;;;0.43;0.43;;;;;;;;;;5051718;28;20586;-63
2021/12/01 09:52:39;;;;;;;0.40;0.40;;;;;;;;;;5051686;28;20238;-63
2021/12/01 09:55:06;;;;;;;0.40;0.40;;;;;;;;;;5052019;28;20223;-63
2021/12/01 09:57:33;;;;;;;0.50;0.50;;;;;;;;;;5051740;28;20172;-63
2021/12/01 09:59:59;;;;;;;0.40;0.40;;;;;;;;;;5051691;28;20247;-63
2021/12/01 10:02:25;;;;;;;0.50;0.50;;;;;;;;;;5051545;28;20256;-63
2021/12/01 10:04:51;;;;;;;0.50;0.50;;;;;;;;;;5051577;28;20442;-63
2021/12/01 10:07:19;;;;;;;0.50;0.50;;;;;;;;;;5051406;28;20179;-63
2021/12/01 10:09:46;;;;;;;0.40;0.40;;;;;;;;;;5051312;28;20276;-63
2021/12/01 10:12:13;;;;;;;0.50;0.50;;;;;;;;;;5051084;28;20206;-63
2021/12/01 10:14:44;;;;;;;0.40;0.40;;;;;;;;;;5051189;28;20543;-63
2021/12/01 10:17:10;;;;;;;0.40;0.40;;;;;;;;;;5051543;28;20221;-63
2021/12/01 10:19:36;;;;;;;0.40;0.40;;;;;;;;;;5051318;28;20215;-63
2021/12/01 10:22:08;;;;;;;0.40;0.40;;;;;;;;;;5051331;28;20442;-63
2021/12/01 10:24:36;;;;;;;0.50;0.50;;;;;;;;;;5051445;28;20434;-63
2021/12/01 10:27:04;;;;;;;0.40;0.40;;;;;;;;;;5051758;28;20241;-63
2021/12/01 10:29:31;;;;;;;0.50;0.50;;;;;;;;;;5050518;28;20179;-63
2021/12/01 10:31:58;;;;;;;0.50;0.50;;;;;;;;;;5051144;28;20199;-64
2021/12/01 10:34:35;;;;;;;0.50;0.50;;;;;;;;;;5054965;28;20675;-63
2021/12/01 10:37:08;;;;;;;0.40;0.40;;;;;;;;;;5055272;28;20155;-63
2021/12/01 10:39:35;;;;;;;0.40;0.40;;;;;;;;;;5055316;28;20176;-63
2021/12/01 10:42:05;;;;;;;0.40;0.40;;;;;;;;;;5053738;28;20176;-64
2021/12/01 10:44:31;;;;;;;0.50;0.50;;;;;;;;;;5055186;28;20204;-63
2021/12/01 10:46:57;;;;;;;0.50;0.50;;;;;;;;;;5055135;28;20179;-63
2021/12/01 10:49:34;;;;;;;0.40;0.40;;;;;;;;;;5055046;28;20624;-63
2021/12/01 10:52:00;;;;;;;0.40;0.40;;;;;;;;;;5054532;28;20449;-63
2021/12/01 10:54:26;;;;;;;0.40;0.40;;;;;;;;;;5056019;28;20191;-63
2021/12/01 10:57:10;;;;;;;0.40;0.40;;;;;;;;;;5074374;28;20386;-63
2021/12/01 10:59:46;;;;;;;0.50;0.50;;;;;;;;;;5074485;28;20577;-63
2021/12/01 11:02:13;;;;;;;0.40;0.40;;;;;;;;;;5073776;28;20179;-63
2021/12/01 11:04:43;;;;;;;0.40;0.40;;;;;;;;;;5074696;28;20214;-63
2021/12/01 11:07:23;;;;;;;0.40;0.40;;;;;;;;;;5074738;28;20182;-63
2021/12/01 11:10:08;;;;;;;0.40;0.40;;;;;;;;;;5074572;28;20175;-63
2021/12/01 11:12:34;;;;;;;0.40;0.40;;;;;;;;;;5074483;28;20203;-63
2021/12/01 11:15:15;;;;;;;0.50;0.50;;;;;;;;;;5058808;28;20596;-63
2021/12/01 11:17:44;;;;;;;0.50;0.50;;;;;;;;;;5054420;28;20399;-63
2021/12/01 11:20:10;;;;;;;0.40;0.40;;;;;;;;;;5054405;28;20168;-64
2021/12/01 11:22:37;;;;;;;0.40;0.40;;;;;;;;;;5054803;28;20180;-63
2021/12/01 11:25:19;;;;;;;0.40;0.40;;;;;;;;;;5054227;28;20263;-63
2021/12/01 11:27:45;;;;;;;0.50;0.50;;;;;;;;;;5054364;28;20183;-63
2021/12/01 11:30:11;;;;;;;0.40;0.40;;;;;;;;;;5054228;28;20183;-63
2021/12/01 11:32:37;;;;;;;0.40;0.40;;;;;;;;;;5054259;28;20276;-63
2021/12/01 11:35:03;;;;;;;0.40;0.40;;;;;;;;;;5054293;28;20207;-63
2021/12/01 11:37:29;;;;;;;0.40;0.40;;;;;;;;;;5054233;28;20174;-63
2021/12/01 11:39:56;;;;;;;0.50;0.50;;;;;;;;;;5054051;28;20254;-63
2021/12/01 11:42:23;;;;;;;0.40;0.40;;;;;;;;;;5053866;28;20807;-63
2021/12/01 11:44:50;;;;;;;0.40;0.40;;;;;;;;;;5052940;28;20639;-64
2021/12/01 11:47:16;;;;;;;0.40;0.40;;;;;;;;;;5070156;28;20179;-64
2021/12/01 11:49:43;;;;;;;0.40;0.40;;;;;;;;;;5071960;28;20258;-64
2021/12/01 11:52:10;;;;;;;0.40;0.40;;;;;;;;;;5073406;28;20195;-63
2021/12/01 11:54:43;;;;;;;0.40;0.40;;;;;;;;;;5073447;28;20269;-64
2021/12/01 11:57:10;;;;;;;0.40;0.40;;;;;;;;;;5068323;28;20207;-64
2021/12/01 11:59:37;;;;;;;0.40;0.40;;;;;;;;;;5070614;28;20634;-63
2021/12/01 12:02:03;;;;;;;0.40;0.40;;;;;;;;;;5072933;28;20171;-63
2021/12/01 12:04:29;;;;;;;0.40;0.40;;;;;;;;;;5072048;28;20215;-64
2021/12/01 12:07:06;;;;;;;0.40;0.40;;;;;;;;;;5072827;28;20508;-64
2021/12/01 12:09:32;;;;;;;0.40;0.40;;;;;;;;;;5073096;28;20453;-63
2021/12/01 12:12:02;;;;;;;0.40;0.40;;;;;;;;;;5070231;28;20205;-63
2021/12/01 12:14:36;;;;;;;0.40;0.40;;;;;;;;;;5069832;28;20738;-63
2021/12/01 12:17:19;;;;;;;0.40;0.40;;;;;;;;;;5071651;28;20629;-63
2021/12/01 12:19:51;;;;;;;0.40;0.40;;;;;;;;;;5073152;28;20228;-63
2021/12/01 12:22:21;;;;;;;0.40;0.40;;;;;;;;;;5073125;28;20170;-63
2021/12/01 12:24:53;;;;;;;0.40;0.40;;;;;;;;;;5072231;28;20187;-63
2021/12/01 12:27:38;;;;;;;0.40;0.40;;;;;;;;;;5072770;28;20174;-63
2021/12/01 12:30:10;;;;;;;0.40;0.40;;;;;;;;;;5072672;28;20179;-63
2021/12/01 12:32:36;;;;;;;0.40;0.40;;;;;;;;;;5070653;28;20256;-63
2021/12/01 12:35:06;;;;;;;0.32;0.32;;;;;;;;;;5071907;28;20676;-63
2021/12/01 12:37:36;;;;;;;0.40;0.40;;;;;;;;;;5073041;28;20167;-63
2021/12/01 12:40:05;;;;;;;0.40;0.40;;;;;;;;;;5072766;28;20221;-62
2021/12/01 12:42:31;;;;;;;0.40;0.40;;;;;;;;;;5072723;28;20217;-63
2021/12/01 12:44:58;;;;;;;0.40;0.40;;;;;;;;;;5072629;28;20199;-63
2021/12/01 12:47:26;;;;;;;0.40;0.40;;;;;;;;;;5071798;28;20412;-63
2021/12/01 12:49:54;;;;;;;0.40;0.40;;;;;;;;;;5072711;28;20171;-63
2021/12/01 12:52:26;;;;;;;0.40;0.40;;;;;;;;;;5072275;28;20650;-63
2021/12/01 12:54:52;;;;;;;0.40;0.40;;;;;;;;;;5072567;28;20187;-63
2021/12/01 12:57:18;;;;;;;0.40;0.40;;;;;;;;;;5072087;28;20174;-63
2021/12/01 12:59:44;;;;;;;0.50;0.50;;;;;;;;;;5072610;28;20429;-62
2021/12/01 13:02:10;;;;;;;0.40;0.40;;;;;;;;;;5072182;28;20171;-63
2021/12/01 13:04:51;;;;;;;0.60;0.60;;;;;;;;;;5072232;28;20792;-63
2021/12/01 13:10:22;;;;;;;0.50;0.50;;;;;;;;;;5072526;28;20210;-63
2021/12/01 13:12:51;;;;;;;0.32;0.32;;;;;;;;;;5049014;28;20215;-63
2021/12/01 13:15:37;;;;;;;0.50;0.50;;;;;;;;;;5072135;28;20190;-63
2021/12/01 13:18:05;;;;;;;0.50;0.50;;;;;;;;;;5072193;28;20171;-63
2021/12/01 13:20:32;;;;;;;0.40;0.40;;;;;;;;;;5072054;28;20172;-62
2021/12/01 13:23:03;;;;;;;0.40;0.40;;;;;;;;;;5072173;28;20208;-63
2021/12/01 13:25:29;;;;;;;0.40;0.40;;;;;;;;;;5071897;28;20207;-63
2021/12/01 13:27:55;;;;;;;0.50;0.50;;;;;;;;;;5072066;28;20171;-63
2021/12/01 13:30:22;;;;;;;0.40;0.40;;;;;;;;;;5072015;28;20181;-63
2021/12/01 13:33:06;;;;;;;0.40;0.40;;;;;;;;;;5072059;28;20630;-63
2021/12/01 13:35:32;;;;;;;0.50;0.50;;;;;;;;;;5071929;28;20187;-62
2021/12/01 13:37:58;;;;;;;0.40;0.40;;;;;;;;;;5071928;28;20171;-62
2021/12/01 13:40:27;;;;;;;0.40;0.40;;;;;;;;;;5071997;28;20480;-63
2021/12/01 13:42:54;;;;;;;0.40;0.40;;;;;;;;;;5070697;28;20530;-63
2021/12/01 13:45:23;;;;;;;0.50;0.50;;;;;;;;;;5071725;28;20271;-63
2021/12/01 13:47:49;;;;;;;0.40;0.40;;;;;;;;;;5071879;28;20626;-62
2021/12/01 13:50:15;;;;;;;0.40;0.40;;;;;;;;;;5071666;28;20197;-63
2021/12/01 13:52:43;;;;;;;0.40;0.40;;;;;;;;;;5071577;28;20480;-63
2021/12/01 13:55:22;;;;;;;0.40;0.40;;;;;;;;;;5071600;28;20182;-62
2021/12/01 13:57:53;;;;;;;0.40;0.40;;;;;;;;;;5071944;28;20147;-62
2021/12/01 14:00:38;;;;;;;0.40;0.40;;;;;;;;;;5071791;28;20643;-63
2021/12/01 14:03:05;;;;;;;0.40;0.40;;;;;;;;;;5071525;28;20244;-62
2021/12/01 14:05:31;;;;;;;0.40;0.40;;;;;;;;;;5071481;28;20209;-63
2021/12/01 14:07:57;;;;;;;0.50;0.50;;;;;;;;;;5071031;28;20171;-63
2021/12/01 14:10:26;;;;;;;0.50;0.50;;;;;;;;;;5071524;28;20412;-63
2021/12/01 14:12:54;;;;;;;0.40;0.40;;;;;;;;;;5071404;28;20248;-62
2021/12/01 14:15:20;;;;;;;0.40;0.40;;;;;;;;;;5071514;28;20519;-63
2021/12/01 14:17:46;;;;;;;0.50;0.50;;;;;;;;;;5071435;28;20176;-63
2021/12/01 14:20:16;;;;;;;0.40;0.40;;;;;;;;;;5071347;28;20581;-63
2021/12/01 14:22:46;;;;;;;0.50;0.50;;;;;;;;;;5071601;28;20462;-64
2021/12/01 14:25:12;;;;;;;0.40;0.40;;;;;;;;;;5071370;28;20187;-62
2021/12/01 14:27:40;;;;;;;0.50;0.50;;;;;;;;;;5071265;28;20167;-62
2021/12/01 14:30:08;;;;;;;0.40;0.40;;;;;;;;;;5071035;28;20258;-63
2021/12/01 14:32:34;;;;;;;0.50;0.50;;;;;;;;;;5071172;28;20206;-62
2021/12/01 14:35:05;;;;;;;0.40;0.40;;;;;;;;;;5071177;28;20274;-63
2021/12/01 14:37:32;;;;;;;0.50;0.50;;;;;;;;;;5071366;28;20255;-63
2021/12/01 14:40:08;;;;;;;0.40;0.40;;;;;;;;;;5071256;28;20167;-63
2021/12/01 14:42:34;;;;;;;0.50;0.50;;;;;;;;;;5069807;28;20197;-63
2021/12/01 14:45:07;;;;;;;0.50;0.50;;;;;;;;;;5071161;28;20247;-62
2021/12/01 14:47:34;;;;;;;0.50;0.50;;;;;;;;;;5066708;28;20244;-63
2021/12/01 14:50:00;;;;;;;0.40;0.40;;;;;;;;;;5065946;28;20568;-63
2021/12/01 14:52:28;;;;;;;0.50;0.50;;;;;;;;;;5063379;28;20218;-63
2021/12/01 14:54:57;;;;;;;0.40;0.40;;;;;;;;;;5056588;28;20210;-60
2021/12/01 14:57:24;;;;;;;0.50;0.50;;;;;;;;;;5051597;28;20255;-62